Flight Track Log - Related Links

Times and Time Zones

All times are in EDT time to prevent confusion due to time zone crossing. See the FLG3862 flight status page for this flight to view local times or setup timezone preferences in your user account.

Time Position Orientation Groundspeed Altitude Reporting Facility
EDT Latitude Longitude Course Direction KTS MPH feet Rate Location/Type
12:54 44.3731 -73.6703 253° West  Level FlightAware Approximate
12:54 44.4781 -73.4178 257° West 262 302 9,000  Level Boston Center
12:55 44.3522 -73.8014 259° West  Level FlightAware Approximate
12:55 44.4583 -73.5133 254° West 257 296 10,300  Level Boston Center
12:56 44.3334 -73.9331 259° West  Level FlightAware Approximate
12:56 44.4408 -73.6178 257° West 263 303 11,900  Level Boston Center
12:57 44.3095 -74.0631 256° West  Level FlightAware Approximate
12:57 44.4186 -73.7392 256° West 300 345 13,000  Level Boston Center
12:58 44.2855 -74.1930 256° West  Level FlightAware Approximate
12:58 44.3919 -73.8722 254° West 332 382 14,600  Level Boston Center
12:59 44.3653 -74.0053 254° West 351 404 16,600 1,850 Climbing Boston Center
13:00 44.3403 -74.1469 256° West 351 404 18,300 1,550 Climbing Boston Center
13:01 44.3153 -74.2825 256° West 358 412 19,700 1,250 Climbing Boston Center
13:02 44.2881 -74.4150 254° West 358 412 20,800 1,050 Climbing Boston Center
13:03 44.2583 -74.5619 254° West 371 427 21,800 1,000 Climbing Boston Center
13:04 44.2306 -74.7058 255° West 382 440 22,800 1,000 Climbing Boston Center
13:05 44.2006 -74.8525 254° West 387 445 23,800 1,000 Climbing Boston Center
13:06 44.1744 -75.0019 256° West 393 452 24,800 1,000 Climbing Boston Center
13:07 44.1439 -75.1481 254° West 393 452 25,800 1,000 Climbing Boston Center
13:08 44.1156 -75.2944 255° West 393 452 26,800 1,000 Climbing Boston Center
13:09 44.0825 -75.4431 253° West 393 452 27,800 600 Climbing Boston Center
13:10 44.0536 -75.5919 255° West 398 458 28,000 100 Climbing Boston Center
13:11 44.0222 -75.7433 254° West 403 464 28,000  Level Boston Center
13:12 43.9883 -75.9031 254° West 417 480 28,000  Level Boston Center
13:13 43.9561 -76.0628 254° West 428 493 28,000  Level Boston Center
13:14 43.9508 -76.2269 268° West 428 493 28,000  Level Boston Center
13:15 43.9369 -76.3906 263° West 428 493 28,000  Level Boston Center
13:16 43.9231 -76.5511 263° West 428 493 28,000  Level Boston Center
13:17 43.9089 -76.7144 263° West 428 493 28,000  Level Boston Center
13:18 43.8833 -76.8500 255° West 420 483 28,000  Level Toronto Center
13:19 43.8667 -77.0000 261° West 430 495 28,000  Level Toronto Center
13:20 43.8333 -77.1833 256° West 430 495 28,000  Level Toronto Center
13:21 43.8167 -77.3167 260° West 420 483 28,000  Level Toronto Center
13:22 43.8167 -77.5000 270° West 420 483 28,000  Level Toronto Center
13:23 43.8000 -77.6500 261° West 420 483 28,000  Level Toronto Center
13:24 43.7833 -77.8167 262° West 420 483 28,000  Level Toronto Center
13:25 43.7667 -77.9667 261° West 410 472 28,000  Level Toronto Center
13:26 43.7333 -78.1167 253° West 410 472 28,000  Level Toronto Center
13:27 43.7167 -78.2667 261° West 410 472 28,000  Level Toronto Center
13:28 43.7000 -78.4333 262° West 410 472 28,000  Level Toronto Center
13:29 43.7000 -78.6000 270° West 410 472 28,000  Level Toronto Center
13:30 43.6667 -78.7333 251° West 410 472 28,000  Level Toronto Center
13:31 43.6000 -78.8667 235° Southwest 420 483 28,000  Level Toronto Center
13:32 43.5500 -79.0167 245° Southwest 420 483 28,000  Level Toronto Center
13:33 43.4833 -79.1500 235° Southwest 420 483 28,000  Level Toronto Center
13:34 43.4167 -79.2833 235° Southwest 420 483 28,000  Level Toronto Center
13:35 43.3667 -79.4333 245° Southwest 420 483 28,000  Level Toronto Center
13:36 43.3000 -79.5667 236° Southwest 420 483 28,000  Level Toronto Center
13:37 43.2333 -79.7000 236° Southwest 420 483 28,000 -350 Level Toronto Center
13:38 43.1667 -79.8167 232° Southwest 420 483 27,300 -1,100 Descending Toronto Center
13:39 43.0833 -79.9500 229° Southwest 420 483 25,800 -1,450 Descending Toronto Center
13:40 43.0167 -80.0667 232° Southwest 410 472 24,400 -900 Descending Toronto Center
13:41 42.9667 -80.1833 240° Southwest 390 449 24,000 -650 Descending Toronto Center
13:42 42.9167 -80.3167 243° Southwest 390 449 23,100 -500 Descending Toronto Center
13:43 42.8667 -80.4500 243° Southwest 400 460 23,000 -76 Descending Toronto Center
13:43 42.8583 -80.5067 259° West 395 455 23,000  Level Cleveland Center
13:44 42.8103 -80.6342 243° Southwest 390 449 23,000  Level Cleveland Center
13:45 42.7581 -80.7586 240° Southwest 390 449 23,000 -250 Level Cleveland Center
13:46 42.7100 -80.8828 242° Southwest 379 436 22,500 -1,000 Descending Cleveland Center
13:47 42.6928 -81.0211 260° West 372 428 21,000 -1,250 Descending Cleveland Center
13:48 42.6775 -81.1508 261° West 367 422 20,000 -500 Descending Cleveland Center
13:49 42.6622 -81.2861 261° West 362 417 20,000  Level Cleveland Center
13:50 42.6447 -81.4214 260° West 362 417 20,000  Level Cleveland Center
13:51 42.6289 -81.5681 262° West 367 422 20,000  Level Cleveland Center
13:52 42.6131 -81.7061 261° West 367 422 20,000  Level Cleveland Center
13:53 42.5950 -81.8383 260° West 367 422 20,000  Level Cleveland Center
13:54 42.5789 -81.9733 261° West 367 422 20,000 -850 Level Cleveland Center
13:55 42.5625 -82.1139 261° West 367 422 18,300 -1,700 Descending Cleveland Center
13:56 42.5439 -82.2544 260° West 372 428 16,600 -1,981 Descending Cleveland Center
13:57 42.5319 -82.3583 261° West 376 433 14,900 -2,200 Descending Cleveland Center
13:57 42.5272 -82.3919 259° West 372 428 14,400 -2,129 Descending Cleveland Center
13:58 42.5153 -82.4903 261° West 323 372 12,700 -2,000 Descending Cleveland Center
13:58 42.5106 -82.5183 257° West 365 420 12,400 -985 Descending Cleveland Center
13:59 42.4861 -82.6161 251° West 319 367 11,600 -1,115 Descending Cleveland Center
14:00 42.4486 -82.7217 244° Southwest 301 346 10,300 -1,180 Descending Cleveland Center
14:01 42.4278 -82.8250 255° West 277 319 9,200 -1,122 Descending Cleveland Center
14:02 42.4342 -82.9239 275° West 238 274 8,000 -1,128 Descending Cleveland Center
14:03 42.4433 -82.9944 280° West 201 231 7,000 -1,086 Descending Cleveland Center
14:04 42.4519 -83.0708 279° West 193 222 5,900 -938 Descending Cleveland Center
14:05 42.4400 -83.1464 258° West 178 205 5,000 -563 Descending Cleveland Center
14:06 42.4075 -83.1986 230° Southwest 169 194 4,700 -488 Descending Cleveland Center
14:07 42.3672 -83.2278 208° Southwest 168 193 4,000 -677 Descending Cleveland Center

Login

Don't have an account? Register now (free) for customized features, flight alerts, and more!